createdAt,value
2023-02-16T00:01:47.326Z,62.40
2023-02-16T00:04:22.431Z,61.80
2023-02-16T00:06:50.791Z,61.10
2023-02-16T00:09:19.840Z,60.30
2023-02-16T00:12:06.748Z,64.40
2023-02-16T00:14:36.265Z,61.20
2023-02-16T00:17:04.803Z,68.40
2023-02-16T00:19:37.200Z,57.20
2023-02-16T00:22:05.593Z,66.10
2023-02-16T00:24:33.879Z,67.20
2023-02-16T00:27:02.082Z,62.80
2023-02-16T00:29:34.216Z,62.60
2023-02-16T00:32:03.609Z,62.40
2023-02-16T00:34:40.099Z,57.60
2023-02-16T00:37:09.764Z,59.80
2023-02-16T00:39:38.569Z,60.00
2023-02-16T00:42:24.330Z,62.60
2023-02-16T00:44:53.400Z,62.40
2023-02-16T00:47:30.424Z,58.70
2023-02-16T00:52:35.354Z,56.70
2023-02-16T00:57:34.450Z,56.40
2023-02-16T01:00:08.755Z,61.60
2023-02-16T01:02:36.878Z,64.80
2023-02-16T01:05:05.034Z,60.40
2023-02-16T01:07:51.855Z,58.90
2023-02-16T01:15:33.953Z,52.90
2023-02-16T01:18:02.054Z,59.80
2023-02-16T01:20:29.876Z,63.10
2023-02-16T01:22:57.990Z,65.50
2023-02-16T01:25:26.193Z,61.40
2023-02-16T01:27:54.250Z,74.80
2023-02-16T01:30:23.610Z,74.50
2023-02-16T01:32:51.922Z,66.60
2023-02-16T01:35:24.285Z,68.40
2023-02-16T01:37:52.052Z,75.00
2023-02-16T01:40:40.150Z,72.40
2023-02-16T01:43:18.927Z,72.50
2023-02-16T01:46:09.698Z,69.60
2023-02-16T01:48:37.491Z,67.40
2023-02-16T01:51:11.984Z,66.70
2023-02-16T01:53:41.714Z,66.30
2023-02-16T01:56:31.175Z,63.20
2023-02-16T01:59:03.445Z,56.40
2023-02-16T02:01:31.417Z,63.50
2023-02-16T02:04:18.312Z,67.30
2023-02-16T02:06:46.700Z,70.80
2023-02-16T02:09:17.581Z,62.60
2023-02-16T02:12:03.850Z,64.20
2023-02-16T02:14:35.621Z,69.10
2023-02-16T02:17:06.695Z,71.20
2023-02-16T02:19:42.105Z,61.50
2023-02-16T02:22:47.154Z,67.70
2023-02-16T02:25:25.379Z,63.00
2023-02-16T02:28:01.235Z,55.70
2023-02-16T02:30:38.337Z,54.60
2023-02-16T02:35:52.376Z,56.10
2023-02-16T02:38:43.457Z,59.80
2023-02-16T02:41:44.462Z,53.50
2023-02-16T02:44:13.836Z,55.40
2023-02-16T02:46:41.753Z,57.80
2023-02-16T02:49:09.638Z,64.50
2023-02-16T02:51:40.459Z,60.60
2023-02-16T02:54:39.656Z,61.50
2023-02-16T02:57:29.417Z,60.70
2023-02-16T03:00:20.635Z,59.70
2023-02-16T03:02:51.052Z,61.10
2023-02-16T03:05:20.559Z,55.20
2023-02-16T03:07:50.656Z,60.90
2023-02-16T03:10:40.153Z,61.60
2023-02-16T03:13:11.945Z,57.70
2023-02-16T03:15:40.823Z,59.60
2023-02-16T03:18:28.223Z,63.50
2023-02-16T03:21:15.631Z,65.00
2023-02-16T03:24:03.381Z,58.80
2023-02-16T03:26:51.191Z,58.70
2023-02-16T03:29:23.070Z,54.00
2023-02-16T03:31:52.251Z,58.60
2023-02-16T03:34:21.063Z,57.20
2023-02-16T03:36:52.386Z,55.20
2023-02-16T03:39:20.905Z,58.30
2023-02-16T03:41:52.913Z,59.60
2023-02-16T03:44:21.226Z,62.10
2023-02-16T03:46:51.932Z,58.80
2023-02-16T03:49:20.136Z,56.00
2023-02-16T03:51:48.027Z,59.20
2023-02-16T03:54:15.960Z,59.00
2023-02-16T03:56:44.127Z,54.40
2023-02-16T03:59:11.910Z,54.40
2023-02-16T04:01:39.698Z,58.50
2023-02-16T04:04:08.263Z,54.40
2023-02-16T04:06:36.462Z,54.50
2023-02-16T04:09:04.322Z,57.10
2023-02-16T04:11:51.033Z,58.60
2023-02-16T04:14:19.582Z,56.70
2023-02-16T04:16:47.439Z,54.40
2023-02-16T04:19:15.311Z,58.60
2023-02-16T04:21:43.169Z,59.40
2023-02-16T04:24:11.156Z,54.60
2023-02-16T04:26:39.106Z,56.60
2023-02-16T04:29:06.842Z,54.20
2023-02-16T04:31:35.139Z,57.80
2023-02-16T04:34:03.170Z,59.10
2023-02-16T04:36:31.734Z,61.60
2023-02-16T04:38:59.839Z,51.30
2023-02-16T04:41:27.829Z,50.90
2023-02-16T04:43:55.820Z,51.00
2023-02-16T04:46:24.150Z,56.70
2023-02-16T04:48:52.450Z,56.90
2023-02-16T04:51:20.424Z,55.10
2023-02-16T04:53:48.386Z,58.70
2023-02-16T04:56:16.560Z,58.60
2023-02-16T04:58:44.534Z,54.30
2023-02-16T05:01:20.219Z,61.00
2023-02-16T05:03:48.450Z,64.90
2023-02-16T05:06:16.731Z,60.50
2023-02-16T05:08:45.604Z,62.30
2023-02-16T05:11:32.748Z,61.00
2023-02-16T05:14:19.284Z,58.00
2023-02-16T05:16:47.306Z,59.90
2023-02-16T05:19:15.683Z,59.40
2023-02-16T05:21:43.561Z,58.10
2023-02-16T05:24:11.924Z,62.00
2023-02-16T05:26:40.404Z,56.60
2023-02-16T05:29:08.783Z,56.40
2023-02-16T05:31:37.855Z,62.00
2023-02-16T05:34:05.844Z,62.00
2023-02-16T05:36:33.754Z,57.10
2023-02-16T05:39:01.683Z,56.70
2023-02-16T05:41:29.357Z,55.70
2023-02-16T05:43:58.537Z,57.90
2023-02-16T05:46:27.707Z,60.50
2023-02-16T05:48:56.122Z,57.30
2023-02-16T05:51:23.880Z,62.80
2023-02-16T05:53:51.644Z,58.80
2023-02-16T05:56:20.260Z,55.40
2023-02-16T05:58:49.326Z,55.70
2023-02-16T06:01:17.280Z,59.90
2023-02-16T06:03:45.270Z,58.70
2023-02-16T06:06:13.943Z,56.00
2023-02-16T06:08:41.761Z,55.20
2023-02-16T06:11:28.732Z,56.70
2023-02-16T06:13:59.241Z,55.70
2023-02-16T06:16:27.370Z,54.20
2023-02-16T06:18:55.863Z,57.60
2023-02-16T06:21:24.047Z,55.70
2023-02-16T06:23:52.184Z,49.60
2023-02-16T06:26:20.945Z,52.90
2023-02-16T06:28:49.028Z,53.60
2023-02-16T06:31:17.440Z,55.00
2023-02-16T06:33:45.502Z,50.40
2023-02-16T06:36:14.005Z,51.10
2023-02-16T06:38:42.002Z,58.20
2023-02-16T06:41:10.481Z,56.20
2023-02-16T06:43:38.497Z,59.20
2023-02-16T06:46:06.488Z,59.00
2023-02-16T06:48:34.796Z,55.90
2023-02-16T06:51:03.256Z,54.60
2023-02-16T06:53:31.769Z,53.00
2023-02-16T06:55:59.722Z,54.00
2023-02-16T06:58:27.499Z,57.50
2023-02-16T07:00:55.420Z,51.90
2023-02-16T07:03:23.548Z,53.20
2023-02-16T07:05:51.697Z,51.90
2023-02-16T07:08:19.725Z,54.00
2023-02-16T07:10:50.442Z,52.50
2023-02-16T07:13:18.472Z,54.90
2023-02-16T07:15:46.866Z,54.80
2023-02-16T07:18:14.975Z,54.00
2023-02-16T07:20:42.889Z,55.40
2023-02-16T07:23:10.855Z,55.10
2023-02-16T07:25:38.825Z,50.80
2023-02-16T07:28:06.791Z,51.70
2023-02-16T07:30:35.720Z,49.90
2023-02-16T07:33:04.159Z,54.30
2023-02-16T07:35:33.468Z,52.80
2023-02-16T07:38:01.585Z,50.30
2023-02-16T07:40:29.609Z,49.00
2023-02-16T07:43:01.561Z,51.80
2023-02-16T07:45:30.313Z,49.70
2023-02-16T07:47:59.564Z,50.30
2023-02-16T07:50:27.818Z,52.10
2023-02-16T07:52:56.193Z,50.50
2023-02-16T07:55:23.984Z,54.40
2023-02-16T07:57:55.614Z,46.80
2023-02-16T08:00:23.918Z,49.80
2023-02-16T08:02:52.342Z,47.70
2023-02-16T08:05:20.542Z,46.60
2023-02-16T08:07:48.540Z,50.30
2023-02-16T08:10:16.685Z,54.30
2023-02-16T08:12:45.584Z,49.80
2023-02-16T08:15:14.162Z,47.10
2023-02-16T08:17:42.431Z,48.40
2023-02-16T08:20:10.636Z,48.90
2023-02-16T08:22:38.604Z,45.80
2023-02-16T08:25:07.229Z,46.40
2023-02-16T08:27:35.959Z,45.20
2023-02-16T08:30:04.687Z,45.00
2023-02-16T08:32:32.505Z,47.40
2023-02-16T08:35:01.079Z,45.70
2023-02-16T08:37:29.797Z,43.10
2023-02-16T08:40:00.725Z,46.10
2023-02-16T08:42:28.673Z,44.70
2023-02-16T08:44:56.882Z,40.00
2023-02-16T08:47:26.205Z,44.80
2023-02-16T08:49:53.887Z,44.50
2023-02-16T08:52:21.754Z,45.00
2023-02-16T08:54:49.713Z,45.70
2023-02-16T08:57:18.833Z,45.80
2023-02-16T09:00:07.172Z,45.90
2023-02-16T09:02:34.971Z,44.20
2023-02-16T09:05:03.011Z,43.30
2023-02-16T09:07:34.978Z,43.60
2023-02-16T09:10:06.120Z,43.00
2023-02-16T09:12:35.413Z,43.90
2023-02-16T09:15:03.481Z,43.30
2023-02-16T09:17:31.349Z,42.10
2023-02-16T09:19:59.618Z,40.60
2023-02-16T09:22:27.385Z,42.30
2023-02-16T09:24:55.339Z,42.70
2023-02-16T09:27:23.124Z,43.90
2023-02-16T09:29:51.348Z,38.50
2023-02-16T09:32:19.462Z,42.30
2023-02-16T09:34:50.503Z,44.80
2023-02-16T09:37:18.926Z,38.50
2023-02-16T09:39:47.257Z,39.40
2023-02-16T09:42:14.972Z,37.70
2023-02-16T09:45:13.778Z,39.10
2023-02-16T09:47:43.282Z,34.50
2023-02-16T09:50:27.835Z,40.40
2023-02-16T09:53:13.999Z,35.30
2023-02-16T09:55:54.736Z,36.90
2023-02-16T09:58:26.064Z,36.50
2023-02-16T10:01:08.811Z,35.20
2023-02-16T10:03:52.277Z,32.70
2023-02-16T10:06:23.474Z,28.80
2023-02-16T10:08:57.308Z,32.10
2023-02-16T10:11:46.918Z,30.20
2023-02-16T10:14:18.733Z,31.10
2023-02-16T10:16:52.621Z,31.60
2023-02-16T10:19:43.475Z,29.40
2023-02-16T10:22:17.361Z,28.70
2023-02-16T10:24:55.537Z,25.80
2023-02-16T10:27:23.901Z,31.10
2023-02-16T10:29:52.090Z,31.10
2023-02-16T10:32:25.070Z,29.20
2023-02-16T10:35:13.835Z,31.90
2023-02-16T10:38:02.330Z,29.30
2023-02-16T10:40:34.553Z,27.50
2023-02-16T10:43:05.509Z,27.10
2023-02-16T10:45:39.787Z,30.20
2023-02-16T10:48:09.525Z,26.20
2023-02-16T10:50:42.053Z,27.70
2023-02-16T10:53:14.096Z,33.90
2023-02-16T10:55:42.024Z,27.50
2023-02-16T10:58:22.460Z,28.70
2023-02-16T11:00:54.382Z,28.50
2023-02-16T11:03:29.271Z,30.20
2023-02-16T11:05:57.018Z,27.60
2023-02-16T11:08:25.833Z,30.30
2023-02-16T11:10:54.192Z,28.90
2023-02-16T11:13:28.404Z,29.30
2023-02-16T11:15:58.253Z,26.40
2023-02-16T11:18:30.462Z,27.30
2023-02-16T11:20:58.963Z,28.00
2023-02-16T11:23:31.205Z,26.60
2023-02-16T11:26:01.055Z,29.40
2023-02-16T11:28:32.734Z,27.80
2023-02-16T11:31:03.901Z,30.80
2023-02-16T11:33:32.846Z,29.00
2023-02-16T11:36:02.993Z,28.40
2023-02-16T11:38:37.707Z,29.00
2023-02-16T11:41:07.216Z,29.00
2023-02-16T11:43:37.733Z,26.40
2023-02-16T11:46:08.094Z,28.80
2023-02-16T11:48:36.644Z,34.10
2023-02-16T11:51:06.795Z,29.30
2023-02-16T11:53:36.446Z,32.30
2023-02-16T11:56:10.868Z,29.70
2023-02-16T11:58:39.471Z,30.70
2023-02-16T12:01:17.246Z,31.40
2023-02-16T12:03:59.907Z,27.30
2023-02-16T12:06:43.712Z,29.20
2023-02-16T12:09:27.027Z,27.80
2023-02-16T12:12:02.888Z,30.20
2023-02-16T12:14:42.732Z,31.00
2023-02-16T12:17:27.970Z,31.20
2023-02-16T12:20:16.030Z,29.80
2023-02-16T12:22:47.896Z,31.60
2023-02-16T12:25:24.724Z,32.20
2023-02-16T12:27:56.037Z,34.00
2023-02-16T12:30:30.214Z,31.30
2023-02-16T12:33:08.194Z,32.30
2023-02-16T12:35:55.153Z,33.00
2023-02-16T12:38:41.752Z,32.30
2023-02-16T12:41:26.704Z,33.70
2023-02-16T12:43:58.315Z,34.10
2023-02-16T12:46:38.240Z,34.60
2023-02-16T12:49:13.079Z,34.30
2023-02-16T12:52:07.793Z,35.60
2023-02-16T12:54:38.473Z,35.00
2023-02-16T12:57:26.217Z,36.40
2023-02-16T12:59:59.606Z,34.60
2023-02-16T13:02:31.570Z,35.10
2023-02-16T13:05:15.300Z,32.90
2023-02-16T13:07:47.162Z,38.00
2023-02-16T13:10:21.300Z,38.30
2023-02-16T13:13:06.763Z,36.50
2023-02-16T13:15:39.952Z,35.10
2023-02-16T13:18:16.497Z,34.60
2023-02-16T13:20:47.040Z,35.30
2023-02-16T13:23:17.880Z,34.60
2023-02-16T13:25:54.786Z,36.60
2023-02-16T13:28:32.209Z,37.90
2023-02-16T13:31:09.328Z,34.60
2023-02-16T13:33:44.370Z,34.80
2023-02-16T13:36:21.466Z,33.60
2023-02-16T13:39:05.147Z,39.90
2023-02-16T13:41:57.623Z,33.90
2023-02-16T13:44:28.356Z,31.60
2023-02-16T13:46:56.946Z,34.60
2023-02-16T13:49:28.996Z,33.30
2023-02-16T13:51:58.200Z,35.40
2023-02-16T13:54:30.887Z,31.90
2023-02-16T13:56:58.777Z,36.20
2023-02-16T13:59:27.018Z,34.90
2023-02-16T14:01:56.224Z,36.20
2023-02-16T14:04:24.916Z,39.10
2023-02-16T14:07:08.112Z,33.10
2023-02-16T14:09:38.973Z,32.80
2023-02-16T14:12:14.566Z,33.00
2023-02-16T14:14:42.540Z,33.20
2023-02-16T14:17:23.871Z,33.40
2023-02-16T14:19:54.399Z,31.50
2023-02-16T14:22:37.614Z,35.00
2023-02-16T14:25:27.500Z,31.30
2023-02-16T14:27:58.554Z,32.80
2023-02-16T14:30:26.604Z,34.10
2023-02-16T14:33:17.706Z,34.20
2023-02-16T14:35:47.677Z,31.60
2023-02-16T14:38:17.663Z,36.60
2023-02-16T14:40:46.133Z,34.40
2023-02-16T14:43:25.571Z,33.10
2023-02-16T14:46:09.126Z,37.70
2023-02-16T14:48:52.972Z,36.10
2023-02-16T14:51:21.225Z,39.20
2023-02-16T14:53:48.977Z,32.00
2023-02-16T14:56:35.895Z,36.80
2023-02-16T14:59:12.059Z,35.70
2023-02-16T15:01:41.879Z,37.40
2023-02-16T15:04:11.283Z,35.10
2023-02-16T15:06:44.284Z,33.90
2023-02-16T15:09:23.430Z,37.50
2023-02-16T15:12:12.336Z,36.00
2023-02-16T15:14:46.347Z,37.90
2023-02-16T15:17:27.357Z,33.20
2023-02-16T15:19:56.821Z,35.30
2023-02-16T15:22:26.440Z,36.20
2023-02-16T15:24:56.255Z,34.90
2023-02-16T15:27:24.620Z,35.90
2023-02-16T15:30:03.447Z,38.30
2023-02-16T15:32:32.455Z,38.20
2023-02-16T15:35:09.410Z,39.70
2023-02-16T15:37:40.602Z,39.80
2023-02-16T15:40:27.670Z,35.40
2023-02-16T15:42:56.045Z,38.40
2023-02-16T15:45:28.215Z,36.10
2023-02-16T15:48:12.976Z,35.30
2023-02-16T15:50:42.653Z,34.20
2023-02-16T15:53:12.030Z,40.80
2023-02-16T15:55:45.006Z,39.20
2023-02-16T15:58:14.827Z,38.40
2023-02-16T16:00:43.867Z,40.00
2023-02-16T16:03:17.180Z,40.10
2023-02-16T16:05:54.959Z,42.60
2023-02-16T16:08:24.763Z,42.20
2023-02-16T16:10:53.457Z,39.30
2023-02-16T16:13:24.753Z,39.10
2023-02-16T16:15:54.345Z,38.70
2023-02-16T16:18:37.561Z,37.30
2023-02-16T16:21:13.679Z,40.50
2023-02-16T16:23:52.312Z,46.40
2023-02-16T16:26:21.406Z,42.60
2023-02-16T16:28:49.211Z,39.90
2023-02-16T16:31:23.264Z,39.10
2023-02-16T16:34:04.880Z,40.60
2023-02-16T16:36:36.145Z,41.80
2023-02-16T16:39:16.106Z,40.50
2023-02-16T16:41:45.159Z,42.90
2023-02-16T16:44:26.877Z,42.50
2023-02-16T16:46:54.825Z,41.30
2023-02-16T16:49:23.264Z,41.40
2023-02-16T16:51:52.308Z,44.40
2023-02-16T16:54:36.044Z,44.40
2023-02-16T16:57:08.432Z,47.50
2023-02-16T16:59:37.192Z,43.40
2023-02-16T17:02:05.231Z,45.90
2023-02-16T17:04:33.446Z,45.90
2023-02-16T17:07:02.896Z,48.30
2023-02-16T17:09:30.704Z,51.30
2023-02-16T17:11:58.969Z,52.00
2023-02-16T17:14:29.920Z,44.40
2023-02-16T17:16:59.415Z,47.30
2023-02-16T17:19:29.474Z,42.90
2023-02-16T17:21:58.018Z,45.10
2023-02-16T17:24:27.315Z,46.20
2023-02-16T17:26:55.278Z,47.00
2023-02-16T17:29:24.378Z,46.60
2023-02-16T17:31:53.294Z,44.20
2023-02-16T17:34:22.065Z,42.10
2023-02-16T17:36:50.078Z,43.70
2023-02-16T17:39:21.670Z,47.80
2023-02-16T17:41:50.780Z,45.20
2023-02-16T17:44:19.046Z,45.50
2023-02-16T17:46:47.729Z,45.50
2023-02-16T17:49:18.741Z,43.80
2023-02-16T17:51:47.754Z,41.30
2023-02-16T17:54:15.829Z,42.90
2023-02-16T17:56:45.270Z,42.30
2023-02-16T17:59:15.599Z,45.50
2023-02-16T18:01:44.142Z,41.70
2023-02-16T18:04:12.142Z,44.90
2023-02-16T18:06:41.528Z,42.60
2023-02-16T18:09:16.602Z,49.30
2023-02-16T18:11:46.460Z,44.50
2023-02-16T18:14:15.866Z,45.20
2023-02-16T18:16:47.023Z,47.00
2023-02-16T18:19:17.422Z,42.30
2023-02-16T18:21:46.314Z,43.60
2023-02-16T18:24:14.810Z,43.30
2023-02-16T18:26:44.959Z,40.50
2023-02-16T18:29:14.002Z,44.60
2023-02-16T18:31:43.238Z,46.30
2023-02-16T18:34:12.196Z,44.30
2023-02-16T18:36:40.373Z,42.10
2023-02-16T18:39:11.836Z,40.90
2023-02-16T18:41:41.639Z,41.00
2023-02-16T18:44:09.615Z,42.90
2023-02-16T18:46:37.878Z,43.60
2023-02-16T18:49:07.285Z,41.90
2023-02-16T18:51:36.389Z,41.90
2023-02-16T18:54:06.925Z,44.00
2023-02-16T18:56:36.823Z,43.60
2023-02-16T18:59:05.329Z,42.80
2023-02-16T19:01:37.769Z,42.30
2023-02-16T19:04:07.645Z,46.80
2023-02-16T19:06:37.910Z,43.90
2023-02-16T19:09:06.301Z,46.40
2023-02-16T19:11:36.288Z,48.10
2023-02-16T19:14:05.709Z,50.10
2023-02-16T19:16:37.716Z,46.40
2023-02-16T19:19:09.298Z,52.70
2023-02-16T19:21:40.676Z,48.50
2023-02-16T19:24:11.246Z,49.20
2023-02-16T19:26:40.850Z,49.30
2023-02-16T19:29:10.778Z,49.70
2023-02-16T19:31:39.900Z,50.10
2023-02-16T19:36:07.381Z,49.20
2023-02-16T19:38:36.989Z,45.70
2023-02-16T19:41:11.716Z,56.00
2023-02-16T19:43:40.510Z,46.10
2023-02-16T19:46:10.489Z,48.40
2023-02-16T19:48:39.195Z,45.20
2023-02-16T19:51:09.931Z,52.20
2023-02-16T19:53:39.572Z,51.30
2023-02-16T19:56:09.249Z,51.10
2023-02-16T19:58:38.797Z,52.00
2023-02-16T20:01:10.309Z,49.70
2023-02-16T20:03:41.173Z,47.60
2023-02-16T20:06:18.625Z,51.80
2023-02-16T20:08:49.871Z,48.80
2023-02-16T20:11:22.140Z,51.20
2023-02-16T20:13:50.431Z,50.60
2023-02-16T20:16:19.020Z,47.60
2023-02-16T20:18:47.482Z,52.00
2023-02-16T20:21:21.149Z,48.90
2023-02-16T20:23:50.497Z,49.20
2023-02-16T20:26:21.129Z,52.80
2023-02-16T20:28:50.556Z,51.40
2023-02-16T20:31:21.532Z,46.80
2023-02-16T20:33:50.033Z,46.00
2023-02-16T20:36:19.748Z,50.00
2023-02-16T20:38:48.841Z,47.30
2023-02-16T20:41:17.524Z,47.40
2023-02-16T20:43:46.806Z,48.40
2023-02-16T20:46:16.862Z,45.50
2023-02-16T20:48:45.217Z,47.40
2023-02-16T20:51:13.955Z,46.20
2023-02-16T20:53:42.293Z,45.10
2023-02-16T20:56:15.271Z,48.20
2023-02-16T20:58:44.038Z,45.40
2023-02-16T21:01:19.217Z,50.40
2023-02-16T21:03:48.379Z,45.10
2023-02-16T21:06:18.930Z,44.30
2023-02-16T21:08:49.025Z,46.40
2023-02-16T21:11:17.708Z,47.40
2023-02-16T21:13:45.726Z,42.90
2023-02-16T21:16:14.632Z,44.90
2023-02-16T21:18:43.673Z,46.80
2023-02-16T21:21:21.367Z,45.40
2023-02-16T21:23:50.781Z,46.20
2023-02-16T21:26:21.501Z,47.70
2023-02-16T21:28:49.951Z,49.10
2023-02-16T21:31:21.777Z,48.60
2023-02-16T21:33:50.013Z,47.00
2023-02-16T21:36:20.867Z,48.40
2023-02-16T21:38:49.033Z,47.60
2023-02-16T21:41:25.379Z,50.70
2023-02-16T21:43:56.936Z,44.90
2023-02-16T21:46:26.546Z,47.50
2023-02-16T21:48:55.332Z,43.00
2023-02-16T21:51:28.175Z,44.60
2023-02-16T21:53:58.021Z,39.90
2023-02-16T21:56:26.204Z,41.20
2023-02-16T21:58:54.389Z,42.90
2023-02-16T22:01:24.043Z,38.20
2023-02-16T22:03:58.799Z,37.50
2023-02-16T22:06:28.203Z,36.90
2023-02-16T22:08:56.504Z,38.50
2023-02-16T22:11:26.186Z,35.90
2023-02-16T22:13:54.996Z,39.30
2023-02-16T22:16:24.103Z,38.40
2023-02-16T22:19:04.944Z,35.40
2023-02-16T22:21:38.638Z,32.90
2023-02-16T22:24:07.378Z,35.50
2023-02-16T22:26:35.670Z,37.90
2023-02-16T22:29:04.596Z,36.10
2023-02-16T22:31:32.718Z,38.40
2023-02-16T22:34:05.383Z,37.40
2023-02-16T22:36:34.298Z,37.40
2023-02-16T22:39:02.140Z,37.00
2023-02-16T22:41:30.274Z,36.70
2023-02-16T22:44:02.239Z,37.10
2023-02-16T22:46:30.225Z,37.70
2023-02-16T22:48:58.888Z,35.80
2023-02-16T22:51:29.531Z,35.20
2023-02-16T22:53:58.616Z,34.30
2023-02-16T22:56:27.138Z,34.60
2023-02-16T22:58:57.544Z,36.50
2023-02-16T23:01:27.103Z,36.10
2023-02-16T23:03:59.311Z,38.00
2023-02-16T23:06:30.153Z,39.80
2023-02-16T23:09:02.226Z,39.90
2023-02-16T23:11:30.420Z,40.60
2023-02-16T23:13:59.774Z,38.50
2023-02-16T23:16:29.268Z,37.70
2023-02-16T23:18:58.544Z,40.50
2023-02-16T23:21:27.627Z,37.10
2023-02-16T23:23:56.146Z,38.50
2023-02-16T23:26:25.143Z,38.60
2023-02-16T23:28:53.721Z,37.70
2023-02-16T23:31:22.343Z,40.90
2023-02-16T23:33:51.352Z,39.60
2023-02-16T23:36:19.379Z,38.10
2023-02-16T23:38:47.360Z,38.20
2023-02-16T23:41:15.724Z,38.20
2023-02-16T23:43:43.708Z,38.00
2023-02-16T23:46:12.298Z,31.20
2023-02-16T23:48:40.309Z,33.50
2023-02-16T23:51:10.014Z,35.80
2023-02-16T23:53:39.409Z,35.30
2023-02-16T23:56:09.666Z,38.40
2023-02-16T23:58:41.403Z,35.60
